createdAt,value
2022-09-18T00:01:34.033Z,9.20
2022-09-18T00:03:40.081Z,9.20
2022-09-18T00:05:46.088Z,9.20
2022-09-18T00:07:53.990Z,9.20
2022-09-18T00:09:59.514Z,9.20
2022-09-18T00:12:05.544Z,9.20
2022-09-18T00:14:14.758Z,9.20
2022-09-18T00:16:22.792Z,9.20
2022-09-18T00:18:28.642Z,9.20
2022-09-18T00:20:35.624Z,9.30
2022-09-18T00:22:40.786Z,9.30
2022-09-18T00:24:48.610Z,9.30
2022-09-18T00:26:54.537Z,9.30
2022-09-18T00:29:01.617Z,9.40
2022-09-18T00:31:08.786Z,9.40
2022-09-18T00:33:15.261Z,9.40
2022-09-18T00:35:20.533Z,9.30
2022-09-18T00:37:25.624Z,9.40
2022-09-18T00:39:31.174Z,9.40
2022-09-18T00:41:43.137Z,9.40
2022-09-18T00:43:48.311Z,9.50
2022-09-18T00:45:58.458Z,9.50
2022-09-18T00:48:03.955Z,9.50
2022-09-18T00:50:13.894Z,9.60
2022-09-18T00:52:23.028Z,9.50
2022-09-18T00:54:34.373Z,9.50
2022-09-18T00:56:43.158Z,9.60
2022-09-18T00:58:48.820Z,9.60
2022-09-18T01:00:55.509Z,9.60
2022-09-18T01:03:02.512Z,9.60
2022-09-18T01:05:08.974Z,9.60
2022-09-18T01:07:29.129Z,9.60
2022-09-18T01:09:45.689Z,9.60
2022-09-18T01:12:01.083Z,9.60
2022-09-18T01:14:26.212Z,9.40
2022-09-18T01:16:37.331Z,9.10
2022-09-18T01:18:49.540Z,9.00
2022-09-18T01:21:10.238Z,9.00
2022-09-18T01:23:45.821Z,9.00
2022-09-18T01:26:06.999Z,9.10
2022-09-18T01:28:24.064Z,9.00
2022-09-18T01:30:30.016Z,9.10
2022-09-18T01:32:42.852Z,9.10
2022-09-18T01:34:53.439Z,9.10
2022-09-18T01:37:06.450Z,9.10
2022-09-18T01:39:19.628Z,9.10
2022-09-18T01:41:29.863Z,9.20
2022-09-18T01:43:40.837Z,9.20
2022-09-18T01:45:50.187Z,9.20
2022-09-18T01:48:04.585Z,9.30
2022-09-18T01:50:15.822Z,9.30
2022-09-18T01:52:28.926Z,9.40
2022-09-18T01:54:41.012Z,9.40
2022-09-18T01:56:52.041Z,9.40
2022-09-18T01:59:05.282Z,9.40
2022-09-18T02:01:25.983Z,9.50
2022-09-18T02:03:35.526Z,9.50
2022-09-18T02:05:45.832Z,9.50
2022-09-18T02:08:03.515Z,9.50
2022-09-18T02:10:10.336Z,9.50
2022-09-18T02:12:21.664Z,9.50
2022-09-18T02:14:37.394Z,9.50
2022-09-18T02:17:03.881Z,9.50
2022-09-18T02:19:18.802Z,9.50
2022-09-18T02:21:31.689Z,9.60
2022-09-18T02:23:38.249Z,9.60
2022-09-18T02:25:49.347Z,9.60
2022-09-18T02:27:56.623Z,9.60
2022-09-18T02:30:07.813Z,9.50
2022-09-18T02:32:14.001Z,9.50
2022-09-18T02:34:21.172Z,9.60
2022-09-18T02:36:51.566Z,9.60
2022-09-18T02:39:11.072Z,9.60
2022-09-18T02:41:24.086Z,9.60
2022-09-18T02:43:41.370Z,9.60
2022-09-18T02:46:00.454Z,9.60
2022-09-18T02:48:40.099Z,9.70
2022-09-18T02:50:58.842Z,9.70
2022-09-18T02:53:11.939Z,9.70
2022-09-18T02:55:24.224Z,9.80
2022-09-18T02:57:37.426Z,9.70
2022-09-18T02:59:50.467Z,9.70
2022-09-18T03:02:04.503Z,9.70
2022-09-18T03:04:18.525Z,9.70
2022-09-18T03:06:34.338Z,9.70
2022-09-18T03:08:39.795Z,9.70
2022-09-18T03:10:45.746Z,9.70
2022-09-18T03:12:51.409Z,9.80
2022-09-18T03:14:56.390Z,9.80
2022-09-18T03:17:05.226Z,9.80
2022-09-18T03:19:11.850Z,9.80
2022-09-18T03:21:17.370Z,9.80
2022-09-18T03:23:23.746Z,9.80
2022-09-18T03:25:36.407Z,9.80
2022-09-18T03:27:42.711Z,9.70
2022-09-18T03:29:50.814Z,9.70
2022-09-18T03:31:58.684Z,9.70
2022-09-18T03:34:07.097Z,9.80
2022-09-18T03:36:13.082Z,9.80
2022-09-18T03:38:19.226Z,9.80
2022-09-18T03:40:24.633Z,9.80
2022-09-18T03:42:30.310Z,9.70
2022-09-18T03:44:38.023Z,9.70
2022-09-18T03:46:53.288Z,9.70
2022-09-18T03:48:59.253Z,9.70
2022-09-18T03:51:09.071Z,9.80
2022-09-18T03:53:14.698Z,9.80
2022-09-18T03:55:25.957Z,9.70
2022-09-18T03:58:06.334Z,9.80
2022-09-18T04:00:23.739Z,9.80
2022-09-18T04:02:33.691Z,9.80
2022-09-18T04:04:56.994Z,9.80
2022-09-18T04:07:25.319Z,9.80
2022-09-18T04:09:56.382Z,9.80
2022-09-18T04:12:01.729Z,9.90
2022-09-18T04:14:06.781Z,9.80
2022-09-18T04:16:12.185Z,9.80
2022-09-18T04:18:17.202Z,9.80
2022-09-18T04:20:22.842Z,9.80
2022-09-18T04:22:30.390Z,9.80
2022-09-18T04:24:36.972Z,9.70
2022-09-18T04:26:43.246Z,9.70
2022-09-18T04:28:49.103Z,9.70
2022-09-18T04:30:54.227Z,9.70
2022-09-18T04:32:59.241Z,9.70
2022-09-18T04:35:05.827Z,9.70
2022-09-18T04:37:10.891Z,9.70
2022-09-18T04:39:20.194Z,9.80
2022-09-18T04:41:25.184Z,9.70
2022-09-18T04:43:31.191Z,9.70
2022-09-18T04:45:37.539Z,9.70
2022-09-18T04:47:43.495Z,9.80
2022-09-18T04:49:48.493Z,9.80
2022-09-18T04:51:53.978Z,9.80
2022-09-18T04:53:58.944Z,9.70
2022-09-18T04:56:06.722Z,9.80
2022-09-18T04:58:14.852Z,9.80
2022-09-18T05:00:23.185Z,9.70
2022-09-18T05:02:28.603Z,9.70
2022-09-18T05:04:33.643Z,9.70
2022-09-18T05:06:46.598Z,9.70
2022-09-18T05:08:52.511Z,9.70
2022-09-18T05:10:58.356Z,9.70
2022-09-18T05:13:09.294Z,9.70
2022-09-18T05:15:20.808Z,9.70
2022-09-18T05:19:43.247Z,9.80
2022-09-18T05:21:54.803Z,9.80
2022-09-18T05:23:59.745Z,9.80
2022-09-18T05:26:05.016Z,9.80
2022-09-18T05:28:15.987Z,9.80
2022-09-18T05:30:23.558Z,9.80
2022-09-18T05:32:32.028Z,9.80
2022-09-18T05:34:37.497Z,9.80
2022-09-18T05:36:42.803Z,9.80
2022-09-18T05:38:48.191Z,9.80
2022-09-18T05:40:53.344Z,9.80
2022-09-18T05:42:58.706Z,9.80
2022-09-18T05:45:07.672Z,9.90
2022-09-18T05:47:12.633Z,9.80
2022-09-18T05:49:19.132Z,9.80
2022-09-18T05:51:24.462Z,9.80
2022-09-18T05:53:29.841Z,9.80
2022-09-18T05:55:53.656Z,9.90
2022-09-18T05:58:00.036Z,9.90
2022-09-18T06:00:09.538Z,9.90
2022-09-18T06:02:24.919Z,9.90
2022-09-18T06:04:38.836Z,9.90
2022-09-18T06:06:47.744Z,10.00
2022-09-18T06:08:53.550Z,10.00
2022-09-18T06:11:03.514Z,10.00
2022-09-18T06:13:13.180Z,9.90
2022-09-18T06:15:24.819Z,10.00
2022-09-18T06:17:29.605Z,10.00
2022-09-18T06:19:38.578Z,10.00
2022-09-18T06:21:44.442Z,10.00
2022-09-18T06:23:53.293Z,10.00
2022-09-18T06:26:14.036Z,10.00
2022-09-18T06:28:20.586Z,10.00
2022-09-18T06:30:28.697Z,9.90
2022-09-18T06:32:34.201Z,9.90
2022-09-18T06:34:39.208Z,10.00
2022-09-18T06:36:46.347Z,10.00
2022-09-18T06:39:01.619Z,9.90
2022-09-18T06:41:07.264Z,9.90
2022-09-18T06:43:32.724Z,9.80
2022-09-18T06:45:57.918Z,9.80
2022-09-18T06:48:05.645Z,9.80
2022-09-18T06:50:12.821Z,9.80
2022-09-18T06:52:18.430Z,9.80
2022-09-18T06:54:25.110Z,9.90
2022-09-18T06:56:30.753Z,9.90
2022-09-18T06:58:35.878Z,10.00
2022-09-18T07:00:41.075Z,10.00
2022-09-18T07:02:49.759Z,10.00
2022-09-18T07:05:14.724Z,9.90
2022-09-18T07:07:20.243Z,9.90
2022-09-18T07:09:27.816Z,9.80
2022-09-18T07:11:52.280Z,9.90
2022-09-18T07:14:01.029Z,9.90
2022-09-18T07:16:06.617Z,10.00
2022-09-18T07:18:14.790Z,10.00
2022-09-18T07:20:19.950Z,10.10
2022-09-18T07:22:25.203Z,10.10
2022-09-18T07:24:30.754Z,10.20
2022-09-18T07:26:36.070Z,10.20
2022-09-18T07:28:43.038Z,10.20
2022-09-18T07:30:55.033Z,10.20
2022-09-18T07:32:59.993Z,10.20
2022-09-18T07:35:13.372Z,10.20
2022-09-18T07:37:18.504Z,10.20
2022-09-18T07:39:31.340Z,10.20
2022-09-18T07:41:54.958Z,10.20
2022-09-18T07:44:00.561Z,10.20
2022-09-18T07:46:06.375Z,10.30
2022-09-18T07:48:12.569Z,10.20
2022-09-18T07:50:26.536Z,10.20
2022-09-18T07:52:32.081Z,10.30
2022-09-18T07:54:37.733Z,10.30
2022-09-18T07:56:46.937Z,10.30
2022-09-18T07:58:55.545Z,10.30
2022-09-18T08:01:05.309Z,10.30
2022-09-18T08:03:16.609Z,10.40
2022-09-18T08:05:36.491Z,10.40
2022-09-18T08:07:41.710Z,10.40
2022-09-18T08:10:11.010Z,10.40
2022-09-18T08:12:41.870Z,10.40
2022-09-18T08:15:03.232Z,10.40
2022-09-18T08:17:19.738Z,10.40
2022-09-18T08:19:56.804Z,10.30
2022-09-18T08:22:21.905Z,10.30
2022-09-18T08:24:31.409Z,10.30
2022-09-18T08:26:38.698Z,10.40
2022-09-18T08:28:45.012Z,10.20
2022-09-18T08:30:50.412Z,10.30
2022-09-18T08:33:01.681Z,10.20
2022-09-18T08:35:08.212Z,10.10
2022-09-18T08:37:13.438Z,10.10
2022-09-18T08:39:40.185Z,10.10
2022-09-18T08:42:06.876Z,10.10
2022-09-18T08:44:24.094Z,10.10
2022-09-18T08:46:37.127Z,10.20
2022-09-18T08:48:56.407Z,10.40
2022-09-18T08:51:06.849Z,10.30
2022-09-18T08:53:21.522Z,10.40
2022-09-18T08:56:07.509Z,10.50
2022-09-18T08:58:36.034Z,10.50
2022-09-18T09:00:47.173Z,10.50
2022-09-18T09:03:05.088Z,10.50
2022-09-18T09:05:15.458Z,10.60
2022-09-18T09:07:43.201Z,10.60
2022-09-18T09:10:07.366Z,10.50
2022-09-18T09:12:30.676Z,10.70
2022-09-18T09:15:09.150Z,10.60
2022-09-18T09:17:22.289Z,10.50
2022-09-18T09:19:36.369Z,10.50
2022-09-18T09:21:56.093Z,10.50
2022-09-18T09:24:21.255Z,10.50
2022-09-18T09:26:55.038Z,10.60
2022-09-18T09:29:28.748Z,10.60
2022-09-18T09:31:56.423Z,10.60
2022-09-18T09:34:22.094Z,10.60
2022-09-18T09:36:41.754Z,10.60
2022-09-18T09:38:54.286Z,10.60
2022-09-18T09:41:03.244Z,10.60
2022-09-18T09:43:26.152Z,10.60
2022-09-18T09:45:42.878Z,10.70
2022-09-18T09:48:00.247Z,10.60
2022-09-18T09:50:22.184Z,10.60
2022-09-18T09:52:29.324Z,10.60
2022-09-18T09:54:42.443Z,10.60
2022-09-18T09:56:58.909Z,10.60
2022-09-18T09:59:10.550Z,10.70
2022-09-18T10:01:38.540Z,10.70
2022-09-18T10:04:04.015Z,10.70
2022-09-18T10:06:35.349Z,10.80
2022-09-18T10:08:49.483Z,10.70
2022-09-18T10:10:59.881Z,10.70
2022-09-18T10:13:14.311Z,10.70
2022-09-18T10:15:25.001Z,10.80
2022-09-18T10:17:37.658Z,10.90
2022-09-18T10:19:46.174Z,10.90
2022-09-18T10:21:55.425Z,10.90
2022-09-18T10:24:08.594Z,11.00
2022-09-18T10:26:18.701Z,11.00
2022-09-18T10:28:26.176Z,11.00
2022-09-18T10:30:31.700Z,10.90
2022-09-18T10:32:42.649Z,11.00
2022-09-18T10:34:59.481Z,11.00
2022-09-18T10:37:05.270Z,10.80
2022-09-18T10:39:21.485Z,10.70
2022-09-18T10:41:37.007Z,10.70
2022-09-18T10:44:06.785Z,10.80
2022-09-18T10:46:15.299Z,10.80
2022-09-18T10:48:27.647Z,10.80
2022-09-18T10:50:34.573Z,10.70
2022-09-18T10:52:41.687Z,10.70
2022-09-18T10:55:08.235Z,10.60
2022-09-18T10:57:30.664Z,10.60
2022-09-18T10:59:38.454Z,10.70
2022-09-18T11:01:45.064Z,10.70
2022-09-18T11:04:04.300Z,10.70
2022-09-18T11:06:23.906Z,10.70
2022-09-18T11:08:33.885Z,10.70
2022-09-18T11:10:40.042Z,10.70
2022-09-18T11:12:55.587Z,10.70
2022-09-18T11:15:17.298Z,10.70
2022-09-18T11:17:30.617Z,10.70
2022-09-18T11:19:41.279Z,10.50
2022-09-18T11:22:03.710Z,10.70
2022-09-18T11:24:29.179Z,10.70
2022-09-18T11:26:51.231Z,11.00
2022-09-18T11:29:06.295Z,11.10
2022-09-18T11:31:18.083Z,11.10
2022-09-18T11:33:32.577Z,11.10
2022-09-18T11:35:49.743Z,11.20
2022-09-18T11:38:07.850Z,11.20
2022-09-18T11:40:24.052Z,11.40
2022-09-18T11:42:31.530Z,11.50
2022-09-18T11:44:37.582Z,11.60
2022-09-18T11:46:55.217Z,11.70
2022-09-18T11:49:08.318Z,11.80
2022-09-18T11:51:27.058Z,11.80
2022-09-18T11:53:41.988Z,11.70
2022-09-18T11:55:53.265Z,11.70
2022-09-18T11:58:02.599Z,11.60
2022-09-18T12:00:15.314Z,11.60
2022-09-18T12:02:29.650Z,11.30
2022-09-18T12:04:47.218Z,11.20
2022-09-18T12:07:02.391Z,11.30
2022-09-18T12:09:17.000Z,11.40
2022-09-18T12:11:34.556Z,11.50
2022-09-18T12:13:53.434Z,11.70
2022-09-18T12:16:07.240Z,11.70
2022-09-18T12:18:19.237Z,11.90
2022-09-18T12:20:29.652Z,11.90
2022-09-18T12:22:49.114Z,11.80
2022-09-18T12:24:54.534Z,11.70
2022-09-18T12:27:31.181Z,11.70
2022-09-18T12:29:55.680Z,11.70
2022-09-18T12:32:17.601Z,11.70
2022-09-18T12:34:32.136Z,11.60
2022-09-18T12:37:05.802Z,11.70
2022-09-18T12:39:38.979Z,11.60
2022-09-18T12:42:02.380Z,11.60
2022-09-18T12:44:39.677Z,11.70
2022-09-18T12:47:15.723Z,11.70
2022-09-18T12:49:48.160Z,11.90
2022-09-18T12:52:04.414Z,12.00
2022-09-18T12:54:31.833Z,12.00
2022-09-18T12:56:48.554Z,12.00
2022-09-18T12:59:21.074Z,12.00
2022-09-18T13:01:35.183Z,12.10
2022-09-18T13:03:43.204Z,12.10
2022-09-18T13:05:52.923Z,12.00
2022-09-18T13:08:04.868Z,12.00
2022-09-18T13:10:21.010Z,12.00
2022-09-18T13:12:36.402Z,11.90
2022-09-18T13:14:48.809Z,11.90
2022-09-18T13:16:59.759Z,11.80
2022-09-18T13:19:12.729Z,11.60
2022-09-18T13:21:28.380Z,11.40
2022-09-18T13:23:37.850Z,11.30
2022-09-18T13:25:47.414Z,11.10
2022-09-18T13:27:53.881Z,10.90
2022-09-18T13:30:01.404Z,10.70
2022-09-18T13:32:06.953Z,10.40
2022-09-18T13:34:21.003Z,10.40
2022-09-18T13:36:29.483Z,10.40
2022-09-18T13:38:37.134Z,10.50
2022-09-18T13:40:46.995Z,10.40
2022-09-18T13:42:52.032Z,10.40
2022-09-18T13:44:59.901Z,10.40
2022-09-18T13:47:15.031Z,10.40
2022-09-18T13:49:32.375Z,10.20
2022-09-18T13:51:38.322Z,11.80
2022-09-18T13:53:46.695Z,11.20
2022-09-18T13:55:54.862Z,12.20
2022-09-18T13:58:51.008Z,11.90
2022-09-18T14:00:56.748Z,11.10
2022-09-18T14:03:38.233Z,10.60
2022-09-18T14:05:44.744Z,10.90
2022-09-18T14:08:17.064Z,10.80
2022-09-18T14:10:33.496Z,11.80
2022-09-18T14:12:41.124Z,11.80
2022-09-18T14:14:59.454Z,11.30
2022-09-18T14:17:15.629Z,11.80
2022-09-18T14:19:33.766Z,11.10
2022-09-18T14:21:45.189Z,11.00
2022-09-18T14:24:23.369Z,11.10
2022-09-18T14:27:01.110Z,11.30
2022-09-18T14:29:16.670Z,11.90
2022-09-18T14:31:30.308Z,11.50
2022-09-18T14:33:37.748Z,11.60
2022-09-18T14:35:52.838Z,11.20
2022-09-18T14:37:57.812Z,11.10
2022-09-18T14:40:03.828Z,11.20
2022-09-18T14:42:16.056Z,11.00
2022-09-18T14:44:25.590Z,10.90
2022-09-18T14:46:31.592Z,11.30
2022-09-18T14:48:40.937Z,11.90
2022-09-18T14:50:45.932Z,12.00
2022-09-18T14:52:51.243Z,8.70
2022-09-18T14:54:58.908Z,10.90
2022-09-18T14:57:06.420Z,11.00
2022-09-18T14:59:20.939Z,10.70
2022-09-18T15:01:32.784Z,10.60
2022-09-18T15:03:44.184Z,11.40
2022-09-18T15:05:54.025Z,11.50
2022-09-18T15:08:05.620Z,10.60
2022-09-18T15:10:12.344Z,11.20
2022-09-18T15:12:23.145Z,11.50
2022-09-18T15:14:39.915Z,11.00
2022-09-18T15:16:58.154Z,10.50
2022-09-18T15:19:03.805Z,10.70
2022-09-18T15:21:09.266Z,10.70
2022-09-18T15:23:23.603Z,11.20
2022-09-18T15:25:33.605Z,10.50
2022-09-18T15:27:39.211Z,10.40
2022-09-18T15:29:49.457Z,10.50
2022-09-18T15:31:58.165Z,10.40
2022-09-18T15:34:09.169Z,10.80
2022-09-18T15:36:30.357Z,11.30
2022-09-18T15:38:42.888Z,11.30
2022-09-18T15:40:50.025Z,10.90
2022-09-18T15:42:59.212Z,11.50
2022-09-18T15:45:24.828Z,10.50
2022-09-18T15:47:40.940Z,10.90
2022-09-18T15:49:45.938Z,10.70
2022-09-18T15:51:51.053Z,11.20
2022-09-18T15:54:29.476Z,10.80
2022-09-18T15:56:37.022Z,10.60
2022-09-18T15:58:49.294Z,10.60
2022-09-18T16:01:00.667Z,10.70
2022-09-18T16:03:11.628Z,10.60
2022-09-18T16:05:18.161Z,11.40
2022-09-18T16:07:26.948Z,10.80
2022-09-18T16:09:43.913Z,11.40
2022-09-18T16:11:49.612Z,11.50
2022-09-18T16:13:56.658Z,10.70
2022-09-18T16:16:27.196Z,11.60
2022-09-18T16:18:35.110Z,11.40
2022-09-18T16:20:45.350Z,10.90
2022-09-18T16:22:51.953Z,10.70
2022-09-18T16:24:58.107Z,10.50
2022-09-18T16:27:08.778Z,11.10
2022-09-18T16:29:23.283Z,11.10
2022-09-18T16:31:34.436Z,10.60
2022-09-18T16:33:55.500Z,10.90
2022-09-18T16:36:06.643Z,10.60
2022-09-18T16:38:12.698Z,10.80
2022-09-18T16:40:27.711Z,10.50
2022-09-18T16:42:33.488Z,10.50
2022-09-18T16:44:39.206Z,11.10
2022-09-18T16:46:49.228Z,10.80
2022-09-18T16:48:57.457Z,11.30
2022-09-18T16:51:04.131Z,11.30
2022-09-18T16:53:09.267Z,11.20
2022-09-18T16:55:14.379Z,11.20
2022-09-18T16:57:25.045Z,10.70
2022-09-18T16:59:36.312Z,10.90
2022-09-18T17:02:02.783Z,10.70
2022-09-18T17:04:11.131Z,10.50
2022-09-18T17:06:18.880Z,11.00
2022-09-18T17:08:24.225Z,10.60
2022-09-18T17:10:31.350Z,10.70
2022-09-18T17:12:36.814Z,10.90
2022-09-18T17:14:42.209Z,10.90
2022-09-18T17:16:48.193Z,11.00
2022-09-18T17:18:53.174Z,10.80
2022-09-18T17:21:04.922Z,10.20
2022-09-18T17:23:10.065Z,10.60
2022-09-18T17:25:16.008Z,10.50
2022-09-18T17:27:21.890Z,10.10
2022-09-18T17:29:26.852Z,10.20
2022-09-18T17:31:32.169Z,10.50
2022-09-18T17:33:37.261Z,10.00
2022-09-18T17:35:42.519Z,10.00
2022-09-18T17:37:51.702Z,10.00
2022-09-18T17:39:56.754Z,10.30
2022-09-18T17:42:02.488Z,10.10
2022-09-18T17:44:09.266Z,9.70
2022-09-18T17:46:16.040Z,10.20
2022-09-18T17:48:21.705Z,10.20
2022-09-18T17:50:26.689Z,9.90
2022-09-18T17:52:31.944Z,10.20
2022-09-18T17:54:39.584Z,9.80
2022-09-18T17:56:45.461Z,9.90
2022-09-18T17:58:51.190Z,10.20
2022-09-18T18:00:56.411Z,10.20
2022-09-18T18:03:01.568Z,9.70
2022-09-18T18:05:07.492Z,10.10
2022-09-18T18:07:12.482Z,10.00
2022-09-18T18:09:18.453Z,9.80
2022-09-18T18:11:27.937Z,10.20
2022-09-18T18:13:32.878Z,10.20
2022-09-18T18:15:37.968Z,10.20
2022-09-18T18:17:43.050Z,10.20
2022-09-18T18:19:49.424Z,9.80
2022-09-18T18:21:54.925Z,10.20
2022-09-18T18:24:00.510Z,10.10
2022-09-18T18:26:06.436Z,10.10
2022-09-18T18:28:14.564Z,9.80
2022-09-18T18:30:20.794Z,9.70
2022-09-18T18:32:26.132Z,10.00
2022-09-18T18:34:31.989Z,9.90
2022-09-18T18:36:36.993Z,9.50
2022-09-18T18:38:43.044Z,9.70
2022-09-18T18:40:48.286Z,9.70
2022-09-18T18:42:53.450Z,10.00
2022-09-18T18:45:02.466Z,10.00
2022-09-18T18:47:08.122Z,10.10
2022-09-18T18:49:16.600Z,10.00
2022-09-18T18:51:22.099Z,9.50
2022-09-18T18:53:27.748Z,10.00
2022-09-18T18:55:32.837Z,9.90
2022-09-18T18:57:39.418Z,9.70
2022-09-18T18:59:45.058Z,9.90
2022-09-18T19:01:52.947Z,9.70
2022-09-18T19:03:59.920Z,9.90
2022-09-18T19:06:05.140Z,9.90
2022-09-18T19:08:10.882Z,9.30
2022-09-18T19:10:17.358Z,9.60
2022-09-18T19:12:22.420Z,9.50
2022-09-18T19:14:32.017Z,9.90
2022-09-18T19:16:37.319Z,9.70
2022-09-18T19:18:51.798Z,9.80
2022-09-18T19:21:02.307Z,9.40
2022-09-18T19:23:13.121Z,9.80
2022-09-18T19:25:20.302Z,10.00
2022-09-18T19:27:25.250Z,9.80
2022-09-18T19:29:31.339Z,9.60
2022-09-18T19:31:38.870Z,9.90
2022-09-18T19:33:46.801Z,9.60
2022-09-18T19:35:52.774Z,9.60
2022-09-18T19:37:57.750Z,9.50
2022-09-18T19:40:02.783Z,9.90
2022-09-18T19:42:14.911Z,9.50
2022-09-18T19:44:32.264Z,9.70
2022-09-18T19:46:37.486Z,9.80
2022-09-18T19:48:43.261Z,9.40
2022-09-18T19:50:52.708Z,10.00
2022-09-18T19:52:58.777Z,9.50
2022-09-18T19:55:03.817Z,9.50
2022-09-18T19:57:08.910Z,9.50
2022-09-18T19:59:14.086Z,9.60
2022-09-18T20:01:22.963Z,9.50
2022-09-18T20:03:28.139Z,9.20
2022-09-18T20:05:33.960Z,9.60
2022-09-18T20:07:42.445Z,9.50
2022-09-18T20:09:48.151Z,9.40
2022-09-18T20:11:54.128Z,9.90
2022-09-18T20:14:00.017Z,9.90
2022-09-18T20:16:07.798Z,9.80
2022-09-18T20:18:13.396Z,9.90
2022-09-18T20:20:20.304Z,9.60
2022-09-18T20:22:26.139Z,9.60
2022-09-18T20:24:35.374Z,9.50
2022-09-18T20:26:41.054Z,9.60
2022-09-18T20:28:46.374Z,9.90
2022-09-18T20:30:51.707Z,9.60
2022-09-18T20:32:57.494Z,9.90
2022-09-18T20:35:07.654Z,9.70
2022-09-18T20:37:14.226Z,10.00
2022-09-18T20:39:20.420Z,9.90
2022-09-18T20:41:29.720Z,9.90
2022-09-18T20:43:35.873Z,9.50
2022-09-18T20:45:43.917Z,9.60
2022-09-18T20:47:48.704Z,9.40
2022-09-18T20:49:54.386Z,9.30
2022-09-18T20:52:00.357Z,9.70
2022-09-18T20:54:08.327Z,9.70
2022-09-18T20:56:16.356Z,9.60
2022-09-18T20:58:25.114Z,9.30
2022-09-18T21:00:30.656Z,9.20
2022-09-18T21:02:36.640Z,9.60
2022-09-18T21:04:47.105Z,9.20
2022-09-18T21:06:56.619Z,9.50
2022-09-18T21:09:04.079Z,9.20
2022-09-18T21:11:09.148Z,9.00
2022-09-18T21:13:14.420Z,9.10
2022-09-18T21:15:22.546Z,9.30
2022-09-18T21:17:28.277Z,9.00
2022-09-18T21:19:34.398Z,9.00
2022-09-18T21:21:39.412Z,9.00
2022-09-18T21:24:01.515Z,9.10
2022-09-18T21:26:31.317Z,9.10
2022-09-18T21:28:36.905Z,9.00
2022-09-18T21:30:45.566Z,9.00
2022-09-18T21:32:54.991Z,8.80
2022-09-18T21:35:04.078Z,8.90
2022-09-18T21:37:11.613Z,9.00
2022-09-18T21:39:17.253Z,8.80
2022-09-18T21:41:25.428Z,9.00
2022-09-18T21:43:31.181Z,8.80
2022-09-18T21:45:40.322Z,8.60
2022-09-18T21:47:48.505Z,8.90
2022-09-18T21:49:53.588Z,8.60
2022-09-18T21:52:00.978Z,8.80
2022-09-18T21:54:06.885Z,8.80
2022-09-18T21:56:15.862Z,8.70
2022-09-18T21:58:21.303Z,8.90
2022-09-18T22:00:26.338Z,8.70
2022-09-18T22:02:31.445Z,8.70
2022-09-18T22:04:41.958Z,9.00
2022-09-18T22:06:49.096Z,9.10
2022-09-18T22:08:56.900Z,9.00
2022-09-18T22:11:07.138Z,9.00
2022-09-18T22:13:12.632Z,9.20
2022-09-18T22:15:17.842Z,9.10
2022-09-18T22:17:23.675Z,9.30
2022-09-18T22:19:29.285Z,9.20
2022-09-18T22:21:39.417Z,9.20
2022-09-18T22:23:44.858Z,9.40
2022-09-18T22:25:50.167Z,9.20
2022-09-18T22:27:55.216Z,9.10
2022-09-18T22:30:00.436Z,9.10
2022-09-18T22:32:06.733Z,9.20
2022-09-18T22:34:12.369Z,9.20
2022-09-18T22:36:18.215Z,9.30
2022-09-18T22:38:27.127Z,9.50
2022-09-18T22:40:32.553Z,9.40
2022-09-18T22:42:38.815Z,9.30
2022-09-18T22:44:43.985Z,9.30
2022-09-18T22:46:50.538Z,9.50
2022-09-18T22:48:55.765Z,9.30
2022-09-18T22:51:08.290Z,9.30
2022-09-18T22:53:14.078Z,9.30
2022-09-18T22:55:21.945Z,9.20
2022-09-18T22:57:27.452Z,9.30
2022-09-18T22:59:33.109Z,9.30
2022-09-18T23:01:42.778Z,9.50
2022-09-18T23:03:50.900Z,9.30
2022-09-18T23:05:56.150Z,9.50
2022-09-18T23:08:01.768Z,9.30
2022-09-18T23:10:08.540Z,9.50
2022-09-18T23:12:16.602Z,9.40
2022-09-18T23:14:25.925Z,9.50
2022-09-18T23:16:33.912Z,9.30
2022-09-18T23:18:40.617Z,9.40
2022-09-18T23:20:52.206Z,9.60
2022-09-18T23:22:57.198Z,9.30
2022-09-18T23:25:02.512Z,9.50
2022-09-18T23:27:08.458Z,9.40
2022-09-18T23:29:22.302Z,9.60
2022-09-18T23:31:32.576Z,9.30
2022-09-18T23:33:39.425Z,9.60
2022-09-18T23:35:44.586Z,9.30
2022-09-18T23:37:50.444Z,9.40
2022-09-18T23:39:55.488Z,9.40
2022-09-18T23:42:02.618Z,9.40
2022-09-18T23:44:12.655Z,9.60
2022-09-18T23:46:21.552Z,9.50
2022-09-18T23:48:29.294Z,9.60
2022-09-18T23:50:35.567Z,9.40
2022-09-18T23:52:41.611Z,9.60
2022-09-18T23:54:46.770Z,9.50
2022-09-18T23:56:52.372Z,9.50
2022-09-18T23:58:59.216Z,9.50
